sensor_id;sensor_type;location;lat;lon;timestamp;P1;durP1;ratioP1;P2;durP2;ratioP2
41829;SDS011;38614;43.472;23.936;2023-02-15T00:01:22;58.78;;;27.77;;
41829;SDS011;38614;43.472;23.936;2023-02-15T00:04:11;49.83;;;24.92;;
41829;SDS011;38614;43.472;23.936;2023-02-15T00:07:00;52.10;;;24.17;;
41829;SDS011;38614;43.472;23.936;2023-02-15T00:09:48;47.60;;;21.52;;
41829;SDS011;38614;43.472;23.936;2023-02-15T00:12:36;43.88;;;18.60;;
41829;SDS011;38614;43.472;23.936;2023-02-15T00:15:24;38.65;;;19.05;;
41829;SDS011;38614;43.472;23.936;2023-02-15T00:18:13;39.08;;;17.65;;
41829;SDS011;38614;43.472;23.936;2023-02-15T00:21:06;40.25;;;18.27;;
41829;SDS011;38614;43.472;23.936;2023-02-15T00:23:57;45.88;;;19.83;;
41829;SDS011;38614;43.472;23.936;2023-02-15T00:26:47;51.38;;;24.02;;
41829;SDS011;38614;43.472;23.936;2023-02-15T00:29:36;54.42;;;24.08;;
41829;SDS011;38614;43.472;23.936;2023-02-15T00:32:24;46.33;;;21.27;;
41829;SDS011;38614;43.472;23.936;2023-02-15T00:35:12;55.72;;;23.27;;
41829;SDS011;38614;43.472;23.936;2023-02-15T00:38:00;54.80;;;24.17;;
41829;SDS011;38614;43.472;23.936;2023-02-15T00:41:08;41.10;;;20.58;;
41829;SDS011;38614;43.472;23.936;2023-02-15T00:43:57;44.28;;;21.17;;
41829;SDS011;38614;43.472;23.936;2023-02-15T00:46:45;39.88;;;20.38;;
41829;SDS011;38614;43.472;23.936;2023-02-15T00:49:32;40.00;;;18.88;;
41829;SDS011;38614;43.472;23.936;2023-02-15T00:52:20;44.28;;;18.88;;
41829;SDS011;38614;43.472;23.936;2023-02-15T00:55:08;40.40;;;18.98;;
41829;SDS011;38614;43.472;23.936;2023-02-15T00:57:56;44.72;;;19.98;;
41829;SDS011;38614;43.472;23.936;2023-02-15T01:00:44;34.25;;;16.65;;
41829;SDS011;38614;43.472;23.936;2023-02-15T01:03:33;49.78;;;18.88;;
41829;SDS011;38614;43.472;23.936;2023-02-15T01:06:21;43.35;;;19.67;;
41829;SDS011;38614;43.472;23.936;2023-02-15T01:09:09;44.35;;;17.77;;
41829;SDS011;38614;43.472;23.936;2023-02-15T01:11:57;37.67;;;15.95;;
41829;SDS011;38614;43.472;23.936;2023-02-15T01:14:45;32.13;;;16.67;;
41829;SDS011;38614;43.472;23.936;2023-02-15T01:17:33;32.03;;;15.57;;
41829;SDS011;38614;43.472;23.936;2023-02-15T01:20:25;39.33;;;15.23;;
41829;SDS011;38614;43.472;23.936;2023-02-15T01:23:14;36.80;;;15.68;;
41829;SDS011;38614;43.472;23.936;2023-02-15T01:26:05;28.85;;;13.68;;
41829;SDS011;38614;43.472;23.936;2023-02-15T01:28:53;27.25;;;12.80;;
41829;SDS011;38614;43.472;23.936;2023-02-15T01:31:42;27.40;;;13.43;;
41829;SDS011;38614;43.472;23.936;2023-02-15T01:34:30;35.60;;;15.85;;
41829;SDS011;38614;43.472;23.936;2023-02-15T01:37:18;40.33;;;20.17;;
41829;SDS011;38614;43.472;23.936;2023-02-15T01:40:07;43.65;;;20.45;;
41829;SDS011;38614;43.472;23.936;2023-02-15T01:42:59;45.75;;;20.08;;
41829;SDS011;38614;43.472;23.936;2023-02-15T01:45:49;35.17;;;18.10;;
41829;SDS011;38614;43.472;23.936;2023-02-15T01:48:42;33.38;;;17.77;;
41829;SDS011;38614;43.472;23.936;2023-02-15T01:51:34;38.58;;;16.15;;
41829;SDS011;38614;43.472;23.936;2023-02-15T01:54:28;35.88;;;16.48;;
41829;SDS011;38614;43.472;23.936;2023-02-15T01:57:21;35.30;;;16.35;;
41829;SDS011;38614;43.472;23.936;2023-02-15T02:00:11;38.38;;;16.63;;
41829;SDS011;38614;43.472;23.936;2023-02-15T02:03:00;42.67;;;17.80;;
41829;SDS011;38614;43.472;23.936;2023-02-15T02:05:50;41.60;;;18.35;;
41829;SDS011;38614;43.472;23.936;2023-02-15T02:08:40;31.83;;;15.98;;
41829;SDS011;38614;43.472;23.936;2023-02-15T02:11:29;28.95;;;14.10;;
41829;SDS011;38614;43.472;23.936;2023-02-15T02:14:17;30.08;;;13.80;;
41829;SDS011;38614;43.472;23.936;2023-02-15T02:26:23;27.75;;;13.73;;
41829;SDS011;38614;43.472;23.936;2023-02-15T02:35:30;38.40;;;17.80;;
41829;SDS011;38614;43.472;23.936;2023-02-15T02:41:58;33.97;;;17.38;;
41829;SDS011;38614;43.472;23.936;2023-02-15T02:45:11;43.03;;;21.38;;
41829;SDS011;38614;43.472;23.936;2023-02-15T02:48:09;46.05;;;21.60;;
41829;SDS011;38614;43.472;23.936;2023-02-15T02:51:02;44.63;;;22.52;;
41829;SDS011;38614;43.472;23.936;2023-02-15T02:53:54;48.75;;;24.80;;
41829;SDS011;38614;43.472;23.936;2023-02-15T02:56:59;46.43;;;22.63;;
41829;SDS011;38614;43.472;23.936;2023-02-15T03:02:40;57.17;;;24.70;;
41829;SDS011;38614;43.472;23.936;2023-02-15T03:05:33;46.85;;;23.52;;
41829;SDS011;38614;43.472;23.936;2023-02-15T03:08:24;47.85;;;23.08;;
41829;SDS011;38614;43.472;23.936;2023-02-15T03:11:18;50.70;;;20.95;;
41829;SDS011;38614;43.472;23.936;2023-02-15T03:14:06;47.45;;;20.80;;
41829;SDS011;38614;43.472;23.936;2023-02-15T03:17:16;48.83;;;24.20;;
41829;SDS011;38614;43.472;23.936;2023-02-15T03:20:24;49.03;;;25.55;;
41829;SDS011;38614;43.472;23.936;2023-02-15T03:23:31;46.13;;;23.50;;
41829;SDS011;38614;43.472;23.936;2023-02-15T03:26:24;60.53;;;26.70;;
41829;SDS011;38614;43.472;23.936;2023-02-15T03:29:17;39.22;;;20.00;;
41829;SDS011;38614;43.472;23.936;2023-02-15T03:32:10;37.28;;;17.98;;
41829;SDS011;38614;43.472;23.936;2023-02-15T03:35:01;35.50;;;17.80;;
41829;SDS011;38614;43.472;23.936;2023-02-15T03:37:52;46.08;;;20.23;;
41829;SDS011;38614;43.472;23.936;2023-02-15T03:40:47;30.88;;;15.95;;
41829;SDS011;38614;43.472;23.936;2023-02-15T03:43:58;34.50;;;17.02;;
41829;SDS011;38614;43.472;23.936;2023-02-15T03:46:54;28.83;;;15.02;;
41829;SDS011;38614;43.472;23.936;2023-02-15T03:49:55;25.13;;;13.07;;
41829;SDS011;38614;43.472;23.936;2023-02-15T03:52:49;26.35;;;14.27;;
41829;SDS011;38614;43.472;23.936;2023-02-15T03:55:37;31.30;;;14.20;;
41829;SDS011;38614;43.472;23.936;2023-02-15T03:58:26;27.15;;;12.93;;
41829;SDS011;38614;43.472;23.936;2023-02-15T04:01:37;29.40;;;13.50;;
41829;SDS011;38614;43.472;23.936;2023-02-15T04:07:21;29.90;;;14.38;;
41829;SDS011;38614;43.472;23.936;2023-02-15T04:10:09;30.48;;;13.00;;
41829;SDS011;38614;43.472;23.936;2023-02-15T04:13:16;31.20;;;15.13;;
41829;SDS011;38614;43.472;23.936;2023-02-15T04:16:03;31.13;;;15.03;;
41829;SDS011;38614;43.472;23.936;2023-02-15T04:18:54;38.70;;;16.57;;
41829;SDS011;38614;43.472;23.936;2023-02-15T04:22:00;33.47;;;17.20;;
41829;SDS011;38614;43.472;23.936;2023-02-15T04:25:12;30.70;;;17.87;;
41829;SDS011;38614;43.472;23.936;2023-02-15T04:28:12;34.60;;;19.67;;
41829;SDS011;38614;43.472;23.936;2023-02-15T04:30:59;42.93;;;21.93;;
41829;SDS011;38614;43.472;23.936;2023-02-15T04:33:47;40.73;;;21.53;;
41829;SDS011;38614;43.472;23.936;2023-02-15T04:36:34;36.88;;;20.35;;
41829;SDS011;38614;43.472;23.936;2023-02-15T04:39:22;43.60;;;19.67;;
41829;SDS011;38614;43.472;23.936;2023-02-15T04:42:10;38.17;;;17.90;;
41829;SDS011;38614;43.472;23.936;2023-02-15T04:45:00;30.13;;;13.73;;
41829;SDS011;38614;43.472;23.936;2023-02-15T04:47:53;27.80;;;13.47;;
41829;SDS011;38614;43.472;23.936;2023-02-15T04:50:43;35.80;;;15.43;;
41829;SDS011;38614;43.472;23.936;2023-02-15T04:53:33;31.60;;;14.10;;
41829;SDS011;38614;43.472;23.936;2023-02-15T04:56:25;33.93;;;16.67;;
41829;SDS011;38614;43.472;23.936;2023-02-15T04:59:12;38.43;;;19.23;;
41829;SDS011;38614;43.472;23.936;2023-02-15T05:02:01;39.27;;;19.67;;
41829;SDS011;38614;43.472;23.936;2023-02-15T05:04:49;39.50;;;18.10;;
41829;SDS011;38614;43.472;23.936;2023-02-15T05:07:38;44.70;;;18.90;;
41829;SDS011;38614;43.472;23.936;2023-02-15T05:10:26;35.53;;;17.83;;
41829;SDS011;38614;43.472;23.936;2023-02-15T05:13:14;43.67;;;20.60;;
41829;SDS011;38614;43.472;23.936;2023-02-15T05:16:02;37.73;;;20.20;;
41829;SDS011;38614;43.472;23.936;2023-02-15T05:18:50;44.27;;;21.83;;
41829;SDS011;38614;43.472;23.936;2023-02-15T05:21:38;50.43;;;24.27;;
41829;SDS011;38614;43.472;23.936;2023-02-15T05:24:29;45.43;;;19.77;;
41829;SDS011;38614;43.472;23.936;2023-02-15T05:27:40;40.03;;;19.50;;
41829;SDS011;38614;43.472;23.936;2023-02-15T05:30:50;43.87;;;19.17;;
41829;SDS011;38614;43.472;23.936;2023-02-15T05:33:48;44.85;;;19.00;;
41829;SDS011;38614;43.472;23.936;2023-02-15T05:36:41;47.43;;;20.37;;
41829;SDS011;38614;43.472;23.936;2023-02-15T05:39:29;40.13;;;19.47;;
41829;SDS011;38614;43.472;23.936;2023-02-15T05:42:19;33.87;;;17.37;;
41829;SDS011;38614;43.472;23.936;2023-02-15T05:45:12;41.57;;;16.57;;
41829;SDS011;38614;43.472;23.936;2023-02-15T05:48:00;39.20;;;17.87;;
41829;SDS011;38614;43.472;23.936;2023-02-15T05:50:56;33.23;;;16.33;;
41829;SDS011;38614;43.472;23.936;2023-02-15T05:54:01;29.10;;;14.67;;
41829;SDS011;38614;43.472;23.936;2023-02-15T05:56:48;38.67;;;16.80;;
41829;SDS011;38614;43.472;23.936;2023-02-15T05:59:36;32.57;;;14.03;;
41829;SDS011;38614;43.472;23.936;2023-02-15T06:02:27;38.53;;;15.07;;
41829;SDS011;38614;43.472;23.936;2023-02-15T06:05:17;37.10;;;15.93;;
41829;SDS011;38614;43.472;23.936;2023-02-15T06:08:05;30.87;;;15.97;;
41829;SDS011;38614;43.472;23.936;2023-02-15T06:10:53;40.63;;;21.10;;
41829;SDS011;38614;43.472;23.936;2023-02-15T06:13:40;36.40;;;18.80;;
41829;SDS011;38614;43.472;23.936;2023-02-15T06:16:30;55.20;;;23.70;;
41829;SDS011;38614;43.472;23.936;2023-02-15T06:19:23;54.17;;;23.92;;
41829;SDS011;38614;43.472;23.936;2023-02-15T06:22:11;62.58;;;26.92;;
41829;SDS011;38614;43.472;23.936;2023-02-15T06:25:02;55.72;;;25.60;;
41829;SDS011;38614;43.472;23.936;2023-02-15T06:27:50;44.10;;;22.02;;
41829;SDS011;38614;43.472;23.936;2023-02-15T06:30:38;36.75;;;17.77;;
41829;SDS011;38614;43.472;23.936;2023-02-15T06:33:26;31.10;;;17.27;;
41829;SDS011;38614;43.472;23.936;2023-02-15T06:36:14;45.90;;;18.73;;
41829;SDS011;38614;43.472;23.936;2023-02-15T06:39:04;52.97;;;21.33;;
41829;SDS011;38614;43.472;23.936;2023-02-15T06:41:51;46.13;;;18.42;;
41829;SDS011;38614;43.472;23.936;2023-02-15T06:44:39;42.58;;;20.80;;
41829;SDS011;38614;43.472;23.936;2023-02-15T06:47:27;76.28;;;31.38;;
41829;SDS011;38614;43.472;23.936;2023-02-15T06:50:15;57.35;;;27.27;;
41829;SDS011;38614;43.472;23.936;2023-02-15T06:53:03;60.15;;;27.92;;
41829;SDS011;38614;43.472;23.936;2023-02-15T06:55:59;63.55;;;28.15;;
41829;SDS011;38614;43.472;23.936;2023-02-15T06:58:49;56.35;;;27.98;;
41829;SDS011;38614;43.472;23.936;2023-02-15T07:01:37;52.30;;;24.17;;
41829;SDS011;38614;43.472;23.936;2023-02-15T07:04:25;32.72;;;16.67;;
41829;SDS011;38614;43.472;23.936;2023-02-15T07:07:13;28.45;;;13.55;;
41829;SDS011;38614;43.472;23.936;2023-02-15T07:10:01;27.63;;;13.35;;
41829;SDS011;38614;43.472;23.936;2023-02-15T07:12:49;26.45;;;12.82;;
41829;SDS011;38614;43.472;23.936;2023-02-15T07:15:37;23.10;;;12.32;;
41829;SDS011;38614;43.472;23.936;2023-02-15T07:18:24;30.77;;;13.23;;
41829;SDS011;38614;43.472;23.936;2023-02-15T07:21:13;24.98;;;12.38;;
41829;SDS011;38614;43.472;23.936;2023-02-15T07:24:01;25.10;;;12.02;;
41829;SDS011;38614;43.472;23.936;2023-02-15T07:26:52;19.13;;;10.00;;
41829;SDS011;38614;43.472;23.936;2023-02-15T07:29:45;21.27;;;9.95;;
41829;SDS011;38614;43.472;23.936;2023-02-15T07:32:33;18.38;;;10.30;;
41829;SDS011;38614;43.472;23.936;2023-02-15T07:35:21;20.42;;;10.48;;
41829;SDS011;38614;43.472;23.936;2023-02-15T07:38:08;24.77;;;11.75;;
41829;SDS011;38614;43.472;23.936;2023-02-15T07:40:59;31.52;;;13.70;;
41829;SDS011;38614;43.472;23.936;2023-02-15T07:43:48;22.08;;;11.90;;
41829;SDS011;38614;43.472;23.936;2023-02-15T07:46:36;20.90;;;11.50;;
41829;SDS011;38614;43.472;23.936;2023-02-15T07:49:27;22.35;;;10.57;;
41829;SDS011;38614;43.472;23.936;2023-02-15T07:52:17;28.92;;;11.80;;
41829;SDS011;38614;43.472;23.936;2023-02-15T07:55:04;20.35;;;11.05;;
41829;SDS011;38614;43.472;23.936;2023-02-15T07:57:55;27.23;;;13.35;;
41829;SDS011;38614;43.472;23.936;2023-02-15T08:00:46;25.13;;;12.77;;
41829;SDS011;38614;43.472;23.936;2023-02-15T08:03:50;23.42;;;11.88;;
41829;SDS011;38614;43.472;23.936;2023-02-15T08:06:39;25.95;;;12.73;;
41829;SDS011;38614;43.472;23.936;2023-02-15T08:09:26;20.95;;;11.18;;
41829;SDS011;38614;43.472;23.936;2023-02-15T08:12:14;25.73;;;12.27;;
41829;SDS011;38614;43.472;23.936;2023-02-15T08:15:02;26.02;;;12.35;;
41829;SDS011;38614;43.472;23.936;2023-02-15T08:17:50;23.98;;;12.57;;
41829;SDS011;38614;43.472;23.936;2023-02-15T08:20:37;26.15;;;14.38;;
41829;SDS011;38614;43.472;23.936;2023-02-15T08:23:25;24.27;;;13.20;;
41829;SDS011;38614;43.472;23.936;2023-02-15T08:26:13;22.95;;;12.40;;
41829;SDS011;38614;43.472;23.936;2023-02-15T08:29:01;20.27;;;11.82;;
41829;SDS011;38614;43.472;23.936;2023-02-15T08:31:50;27.45;;;12.25;;
41829;SDS011;38614;43.472;23.936;2023-02-15T08:34:41;23.20;;;11.90;;
41829;SDS011;38614;43.472;23.936;2023-02-15T08:37:29;27.65;;;12.80;;
41829;SDS011;38614;43.472;23.936;2023-02-15T08:40:16;27.23;;;12.38;;
41829;SDS011;38614;43.472;23.936;2023-02-15T08:43:04;27.40;;;12.35;;
41829;SDS011;38614;43.472;23.936;2023-02-15T08:45:52;19.67;;;11.13;;
41829;SDS011;38614;43.472;23.936;2023-02-15T08:48:40;19.77;;;12.02;;
41829;SDS011;38614;43.472;23.936;2023-02-15T08:51:32;29.65;;;13.65;;
41829;SDS011;38614;43.472;23.936;2023-02-15T08:54:22;24.95;;;12.45;;
41829;SDS011;38614;43.472;23.936;2023-02-15T08:57:10;25.85;;;11.57;;
41829;SDS011;38614;43.472;23.936;2023-02-15T08:59:58;24.30;;;11.68;;
41829;SDS011;38614;43.472;23.936;2023-02-15T09:02:45;26.67;;;12.38;;
41829;SDS011;38614;43.472;23.936;2023-02-15T09:05:33;25.50;;;11.40;;
41829;SDS011;38614;43.472;23.936;2023-02-15T09:08:21;22.42;;;12.18;;
41829;SDS011;38614;43.472;23.936;2023-02-15T09:11:13;28.17;;;12.57;;
41829;SDS011;38614;43.472;23.936;2023-02-15T09:14:13;28.70;;;11.52;;
41829;SDS011;38614;43.472;23.936;2023-02-15T09:17:07;23.15;;;10.80;;
41829;SDS011;38614;43.472;23.936;2023-02-15T09:22:51;30.05;;;11.77;;
41829;SDS011;38614;43.472;23.936;2023-02-15T09:25:43;23.85;;;11.95;;
41829;SDS011;38614;43.472;23.936;2023-02-15T09:28:33;22.20;;;12.63;;
41829;SDS011;38614;43.472;23.936;2023-02-15T09:31:25;18.73;;;10.43;;
41829;SDS011;38614;43.472;23.936;2023-02-15T09:34:16;30.88;;;13.02;;
41829;SDS011;38614;43.472;23.936;2023-02-15T09:37:05;30.30;;;12.00;;
41829;SDS011;38614;43.472;23.936;2023-02-15T09:39:53;25.30;;;11.70;;
41829;SDS011;38614;43.472;23.936;2023-02-15T09:42:48;25.55;;;13.35;;
41829;SDS011;38614;43.472;23.936;2023-02-15T09:48:40;21.77;;;12.25;;
41829;SDS011;38614;43.472;23.936;2023-02-15T09:51:44;20.67;;;11.05;;
41829;SDS011;38614;43.472;23.936;2023-02-15T09:54:51;22.92;;;11.98;;
41829;SDS011;38614;43.472;23.936;2023-02-15T09:58:14;16.67;;;9.15;;
41829;SDS011;38614;43.472;23.936;2023-02-15T10:01:31;19.55;;;9.15;;
41829;SDS011;38614;43.472;23.936;2023-02-15T10:10:43;33.70;;;10.48;;
41829;SDS011;38614;43.472;23.936;2023-02-15T10:13:49;19.33;;;10.65;;
41829;SDS011;38614;43.472;23.936;2023-02-15T10:17:06;18.42;;;10.55;;
41829;SDS011;38614;43.472;23.936;2023-02-15T10:26:27;27.20;;;10.30;;
41829;SDS011;38614;43.472;23.936;2023-02-15T10:32:53;16.45;;;9.43;;
41829;SDS011;38614;43.472;23.936;2023-02-15T10:48:46;22.38;;;9.48;;
41829;SDS011;38614;43.472;23.936;2023-02-15T10:55:02;19.15;;;9.55;;
41829;SDS011;38614;43.472;23.936;2023-02-15T11:13:14;20.63;;;10.25;;
41829;SDS011;38614;43.472;23.936;2023-02-15T11:16:15;13.32;;;9.20;;
41829;SDS011;38614;43.472;23.936;2023-02-15T11:19:08;21.63;;;9.75;;
41829;SDS011;38614;43.472;23.936;2023-02-15T11:22:02;16.42;;;8.93;;
41829;SDS011;38614;43.472;23.936;2023-02-15T11:24:52;25.10;;;9.95;;
41829;SDS011;38614;43.472;23.936;2023-02-15T11:27:41;19.73;;;11.18;;
41829;SDS011;38614;43.472;23.936;2023-02-15T11:30:37;19.73;;;8.95;;
41829;SDS011;38614;43.472;23.936;2023-02-15T11:33:34;18.27;;;9.48;;
41829;SDS011;38614;43.472;23.936;2023-02-15T11:36:33;16.38;;;8.45;;
41829;SDS011;38614;43.472;23.936;2023-02-15T11:39:26;19.98;;;9.13;;
41829;SDS011;38614;43.472;23.936;2023-02-15T11:42:19;18.55;;;8.68;;
41829;SDS011;38614;43.472;23.936;2023-02-15T11:48:13;12.45;;;8.10;;
41829;SDS011;38614;43.472;23.936;2023-02-15T11:51:02;16.63;;;9.43;;
41829;SDS011;38614;43.472;23.936;2023-02-15T11:53:50;18.92;;;9.65;;
41829;SDS011;38614;43.472;23.936;2023-02-15T11:56:39;27.77;;;10.63;;
41829;SDS011;38614;43.472;23.936;2023-02-15T11:59:31;15.32;;;9.23;;
41829;SDS011;38614;43.472;23.936;2023-02-15T12:02:22;13.50;;;8.48;;
41829;SDS011;38614;43.472;23.936;2023-02-15T12:05:11;19.45;;;9.30;;
41829;SDS011;38614;43.472;23.936;2023-02-15T12:08:15;19.92;;;10.95;;
41829;SDS011;38614;43.472;23.936;2023-02-15T12:11:07;18.98;;;9.93;;
41829;SDS011;38614;43.472;23.936;2023-02-15T12:14:09;19.30;;;10.48;;
41829;SDS011;38614;43.472;23.936;2023-02-15T12:17:03;18.20;;;9.88;;
41829;SDS011;38614;43.472;23.936;2023-02-15T12:20:01;16.52;;;9.63;;
41829;SDS011;38614;43.472;23.936;2023-02-15T12:23:14;17.33;;;9.98;;
41829;SDS011;38614;43.472;23.936;2023-02-15T12:26:03;24.88;;;11.32;;
41829;SDS011;38614;43.472;23.936;2023-02-15T12:28:50;18.13;;;9.70;;
41829;SDS011;38614;43.472;23.936;2023-02-15T12:31:46;19.52;;;9.98;;
41829;SDS011;38614;43.472;23.936;2023-02-15T12:34:36;19.02;;;10.18;;
41829;SDS011;38614;43.472;23.936;2023-02-15T12:37:30;18.17;;;9.57;;
41829;SDS011;38614;43.472;23.936;2023-02-15T12:40:23;15.68;;;8.90;;
41829;SDS011;38614;43.472;23.936;2023-02-15T12:43:27;17.23;;;9.27;;
41829;SDS011;38614;43.472;23.936;2023-02-15T12:46:22;15.02;;;8.65;;
41829;SDS011;38614;43.472;23.936;2023-02-15T12:58:16;19.33;;;10.25;;
41829;SDS011;38614;43.472;23.936;2023-02-15T13:01:14;20.67;;;10.45;;
41829;SDS011;38614;43.472;23.936;2023-02-15T13:04:04;15.63;;;9.30;;
41829;SDS011;38614;43.472;23.936;2023-02-15T13:07:01;17.00;;;9.88;;
41829;SDS011;38614;43.472;23.936;2023-02-15T13:09:49;20.17;;;10.73;;
41829;SDS011;38614;43.472;23.936;2023-02-15T13:12:38;27.20;;;11.30;;
41829;SDS011;38614;43.472;23.936;2023-02-15T13:15:30;22.33;;;11.18;;
41829;SDS011;38614;43.472;23.936;2023-02-15T13:18:29;20.85;;;10.50;;
41829;SDS011;38614;43.472;23.936;2023-02-15T13:21:26;18.52;;;10.25;;
41829;SDS011;38614;43.472;23.936;2023-02-15T13:24:23;21.52;;;10.60;;
41829;SDS011;38614;43.472;23.936;2023-02-15T13:27:21;22.65;;;10.93;;
41829;SDS011;38614;43.472;23.936;2023-02-15T13:33:34;21.08;;;10.85;;
41829;SDS011;38614;43.472;23.936;2023-02-15T13:36:29;26.50;;;12.50;;
41829;SDS011;38614;43.472;23.936;2023-02-15T13:39:30;19.77;;;11.23;;
41829;SDS011;38614;43.472;23.936;2023-02-15T13:42:32;19.75;;;10.30;;
41829;SDS011;38614;43.472;23.936;2023-02-15T13:45:36;23.35;;;10.23;;
41829;SDS011;38614;43.472;23.936;2023-02-15T13:48:51;23.27;;;11.38;;
41829;SDS011;38614;43.472;23.936;2023-02-15T14:10:24;19.30;;;9.02;;
41829;SDS011;38614;43.472;23.936;2023-02-15T14:17:01;26.17;;;11.32;;
41829;SDS011;38614;43.472;23.936;2023-02-15T14:29:49;17.30;;;10.02;;
41829;SDS011;38614;43.472;23.936;2023-02-15T14:32:42;16.35;;;9.18;;
41829;SDS011;38614;43.472;23.936;2023-02-15T14:35:35;18.95;;;9.90;;
41829;SDS011;38614;43.472;23.936;2023-02-15T14:41:38;15.27;;;8.48;;
41829;SDS011;38614;43.472;23.936;2023-02-15T14:44:39;16.35;;;8.82;;
41829;SDS011;38614;43.472;23.936;2023-02-15T14:47:36;21.58;;;8.52;;
41829;SDS011;38614;43.472;23.936;2023-02-15T14:56:20;21.02;;;8.77;;
41829;SDS011;38614;43.472;23.936;2023-02-15T15:07:55;17.15;;;8.32;;
41829;SDS011;38614;43.472;23.936;2023-02-15T15:10:46;14.40;;;8.38;;
41829;SDS011;38614;43.472;23.936;2023-02-15T15:13:35;17.58;;;9.57;;
41829;SDS011;38614;43.472;23.936;2023-02-15T15:22:42;28.45;;;12.57;;
41829;SDS011;38614;43.472;23.936;2023-02-15T15:25:40;36.63;;;14.98;;
41829;SDS011;38614;43.472;23.936;2023-02-15T15:34:47;32.42;;;14.88;;
41829;SDS011;38614;43.472;23.936;2023-02-15T15:37:56;49.50;;;19.17;;
41829;SDS011;38614;43.472;23.936;2023-02-15T15:50:44;58.75;;;25.30;;
41829;SDS011;38614;43.472;23.936;2023-02-15T15:53:37;65.03;;;26.92;;
41829;SDS011;38614;43.472;23.936;2023-02-15T15:56:30;41.60;;;17.65;;
41829;SDS011;38614;43.472;23.936;2023-02-15T15:59:22;35.97;;;18.80;;
41829;SDS011;38614;43.472;23.936;2023-02-15T16:02:13;28.98;;;15.15;;
41829;SDS011;38614;43.472;23.936;2023-02-15T16:05:07;39.55;;;17.60;;
41829;SDS011;38614;43.472;23.936;2023-02-15T16:07:56;26.40;;;12.10;;
41829;SDS011;38614;43.472;23.936;2023-02-15T16:10:44;31.52;;;12.68;;
41829;SDS011;38614;43.472;23.936;2023-02-15T16:13:32;33.10;;;17.95;;
41829;SDS011;38614;43.472;23.936;2023-02-15T16:16:22;42.08;;;18.17;;
41829;SDS011;38614;43.472;23.936;2023-02-15T16:19:16;34.53;;;16.95;;
41829;SDS011;38614;43.472;23.936;2023-02-15T16:22:12;34.35;;;14.70;;
41829;SDS011;38614;43.472;23.936;2023-02-15T16:28:47;33.40;;;15.32;;
41829;SDS011;38614;43.472;23.936;2023-02-15T16:31:38;45.72;;;16.02;;
41829;SDS011;38614;43.472;23.936;2023-02-15T16:34:26;36.45;;;13.95;;
41829;SDS011;38614;43.472;23.936;2023-02-15T16:37:16;30.75;;;12.70;;
41829;SDS011;38614;43.472;23.936;2023-02-15T16:40:05;22.40;;;11.65;;
41829;SDS011;38614;43.472;23.936;2023-02-15T16:43:02;23.42;;;10.32;;
41829;SDS011;38614;43.472;23.936;2023-02-15T16:45:58;25.35;;;13.02;;
41829;SDS011;38614;43.472;23.936;2023-02-15T16:49:15;25.65;;;12.35;;
41829;SDS011;38614;43.472;23.936;2023-02-15T16:52:03;23.52;;;11.77;;
41829;SDS011;38614;43.472;23.936;2023-02-15T16:54:59;27.58;;;13.35;;
41829;SDS011;38614;43.472;23.936;2023-02-15T16:57:49;24.85;;;11.48;;
41829;SDS011;38614;43.472;23.936;2023-02-15T17:00:39;25.83;;;12.32;;
41829;SDS011;38614;43.472;23.936;2023-02-15T17:03:30;21.67;;;11.15;;
41829;SDS011;38614;43.472;23.936;2023-02-15T17:06:19;21.88;;;11.05;;
41829;SDS011;38614;43.472;23.936;2023-02-15T17:09:13;28.63;;;15.35;;
41829;SDS011;38614;43.472;23.936;2023-02-15T17:12:08;45.33;;;23.92;;
41829;SDS011;38614;43.472;23.936;2023-02-15T17:14:56;39.42;;;19.95;;
41829;SDS011;38614;43.472;23.936;2023-02-15T17:17:44;36.60;;;18.80;;
41829;SDS011;38614;43.472;23.936;2023-02-15T17:20:33;38.70;;;18.95;;
41829;SDS011;38614;43.472;23.936;2023-02-15T17:26:24;33.72;;;18.45;;
41829;SDS011;38614;43.472;23.936;2023-02-15T17:29:23;29.67;;;16.00;;
41829;SDS011;38614;43.472;23.936;2023-02-15T17:32:25;34.50;;;16.85;;
41829;SDS011;38614;43.472;23.936;2023-02-15T17:35:25;38.42;;;19.10;;
41829;SDS011;38614;43.472;23.936;2023-02-15T17:38:19;37.13;;;19.05;;
41829;SDS011;38614;43.472;23.936;2023-02-15T17:41:09;42.15;;;22.25;;
41829;SDS011;38614;43.472;23.936;2023-02-15T17:43:57;41.17;;;20.15;;
41829;SDS011;38614;43.472;23.936;2023-02-15T17:46:45;50.85;;;21.15;;
41829;SDS011;38614;43.472;23.936;2023-02-15T17:49:33;37.28;;;18.73;;
41829;SDS011;38614;43.472;23.936;2023-02-15T17:52:21;47.10;;;23.25;;
41829;SDS011;38614;43.472;23.936;2023-02-15T17:55:12;56.40;;;25.73;;
41829;SDS011;38614;43.472;23.936;2023-02-15T17:58:20;60.95;;;27.20;;
41829;SDS011;38614;43.472;23.936;2023-02-15T18:01:13;73.72;;;31.40;;
41829;SDS011;38614;43.472;23.936;2023-02-15T18:04:23;66.28;;;30.67;;
41829;SDS011;38614;43.472;23.936;2023-02-15T18:07:29;62.25;;;29.70;;
41829;SDS011;38614;43.472;23.936;2023-02-15T18:10:36;57.63;;;25.67;;
41829;SDS011;38614;43.472;23.936;2023-02-15T18:13:42;62.88;;;30.48;;
41829;SDS011;38614;43.472;23.936;2023-02-15T18:16:36;98.20;;;41.47;;
41829;SDS011;38614;43.472;23.936;2023-02-15T18:19:32;126.10;;;52.55;;
41829;SDS011;38614;43.472;23.936;2023-02-15T18:22:21;121.88;;;52.83;;
41829;SDS011;38614;43.472;23.936;2023-02-15T18:25:12;159.77;;;72.38;;
41829;SDS011;38614;43.472;23.936;2023-02-15T18:28:01;172.43;;;72.28;;
41829;SDS011;38614;43.472;23.936;2023-02-15T18:30:49;223.35;;;79.68;;
41829;SDS011;38614;43.472;23.936;2023-02-15T18:33:41;170.43;;;68.72;;
41829;SDS011;38614;43.472;23.936;2023-02-15T18:36:39;167.27;;;65.65;;
41829;SDS011;38614;43.472;23.936;2023-02-15T18:39:38;158.10;;;60.92;;
41829;SDS011;38614;43.472;23.936;2023-02-15T18:42:31;171.55;;;66.78;;
41829;SDS011;38614;43.472;23.936;2023-02-15T18:45:22;147.18;;;60.63;;
41829;SDS011;38614;43.472;23.936;2023-02-15T18:48:21;130.38;;;55.42;;
41829;SDS011;38614;43.472;23.936;2023-02-15T18:51:13;109.72;;;51.35;;
41829;SDS011;38614;43.472;23.936;2023-02-15T18:54:04;132.70;;;55.40;;
41829;SDS011;38614;43.472;23.936;2023-02-15T18:56:59;127.97;;;53.90;;
41829;SDS011;38614;43.472;23.936;2023-02-15T18:59:47;185.98;;;70.38;;
41829;SDS011;38614;43.472;23.936;2023-02-15T19:02:38;184.35;;;73.93;;
41829;SDS011;38614;43.472;23.936;2023-02-15T19:05:26;254.80;;;88.50;;
41829;SDS011;38614;43.472;23.936;2023-02-15T19:08:16;248.02;;;86.22;;
41829;SDS011;38614;43.472;23.936;2023-02-15T19:11:15;234.60;;;87.10;;
41829;SDS011;38614;43.472;23.936;2023-02-15T19:14:11;210.85;;;83.90;;
41829;SDS011;38614;43.472;23.936;2023-02-15T19:17:14;196.90;;;78.37;;
41829;SDS011;38614;43.472;23.936;2023-02-15T19:20:04;170.43;;;72.55;;
41829;SDS011;38614;43.472;23.936;2023-02-15T19:22:52;161.88;;;75.07;;
41829;SDS011;38614;43.472;23.936;2023-02-15T19:25:42;203.43;;;95.90;;
41829;SDS011;38614;43.472;23.936;2023-02-15T19:28:33;164.48;;;79.05;;